createdAt,value
2022-08-29T00:00:49.402Z,58.12
2022-08-29T00:03:17.649Z,58.33
2022-08-29T00:05:49.885Z,59.09
2022-08-29T00:08:17.534Z,59.34
2022-08-29T00:10:44.157Z,59.55
2022-08-29T00:13:12.431Z,59.90
2022-08-29T00:15:45.128Z,59.74
2022-08-29T00:18:14.421Z,59.06
2022-08-29T00:20:41.350Z,59.12
2022-08-29T00:23:08.850Z,58.92
2022-08-29T00:25:35.833Z,58.82
2022-08-29T00:28:03.052Z,59.67
2022-08-29T00:30:30.730Z,60.45
2022-08-29T00:32:57.454Z,59.96
2022-08-29T00:35:31.657Z,59.70
2022-08-29T00:37:59.464Z,59.14
2022-08-29T00:40:35.059Z,58.82
2022-08-29T00:43:03.012Z,59.09
2022-08-29T00:45:30.212Z,60.20
2022-08-29T00:48:10.229Z,60.30
2022-08-29T00:50:44.467Z,60.34
2022-08-29T00:53:15.378Z,59.67
2022-08-29T00:55:43.966Z,59.60
2022-08-29T00:58:31.604Z,59.72
2022-08-29T01:00:58.391Z,59.44
2022-08-29T01:03:26.433Z,61.04
2022-08-29T01:05:53.330Z,60.95
2022-08-29T01:08:20.025Z,60.74
2022-08-29T01:10:46.807Z,60.03
2022-08-29T01:13:13.805Z,60.04
2022-08-29T01:15:42.929Z,60.52
2022-08-29T01:18:11.759Z,59.92
2022-08-29T01:20:53.716Z,60.18
2022-08-29T01:23:31.681Z,59.95
2022-08-29T01:26:01.116Z,60.79
2022-08-29T01:28:32.120Z,60.55
2022-08-29T01:31:07.355Z,60.86
2022-08-29T01:33:47.878Z,60.97
2022-08-29T01:36:19.160Z,60.23
2022-08-29T01:38:46.699Z,60.73
2022-08-29T01:41:14.318Z,61.17
2022-08-29T01:43:49.190Z,61.13
2022-08-29T01:46:18.605Z,61.18
2022-08-29T01:48:46.062Z,60.80
2022-08-29T01:51:13.676Z,60.98
2022-08-29T01:53:41.286Z,61.00
2022-08-29T01:56:12.943Z,60.80
2022-08-29T01:58:39.664Z,61.84
2022-08-29T02:01:07.323Z,61.48
2022-08-29T02:03:34.101Z,62.38
2022-08-29T02:06:02.250Z,62.15
2022-08-29T02:08:29.698Z,62.54
2022-08-29T02:10:56.987Z,62.47
2022-08-29T02:13:23.799Z,62.34
2022-08-29T02:15:51.369Z,62.10
2022-08-29T02:18:18.048Z,62.67
2022-08-29T02:20:45.773Z,63.59
2022-08-29T02:23:29.791Z,63.61
2022-08-29T02:25:56.962Z,62.17
2022-08-29T02:28:23.559Z,62.69
2022-08-29T02:30:55.823Z,62.36
2022-08-29T02:33:25.470Z,62.25
2022-08-29T02:35:53.069Z,63.14
2022-08-29T02:38:20.695Z,62.64
2022-08-29T02:40:49.030Z,63.16
2022-08-29T02:43:16.537Z,62.65
2022-08-29T02:45:43.524Z,62.78
2022-08-29T02:48:11.125Z,62.84
2022-08-29T02:50:42.070Z,61.90
2022-08-29T02:53:09.186Z,61.80
2022-08-29T02:55:35.965Z,62.33
2022-08-29T02:58:02.707Z,62.54
2022-08-29T03:00:29.405Z,62.48
2022-08-29T03:02:57.022Z,62.47
2022-08-29T03:05:27.060Z,61.73
2022-08-29T03:07:55.798Z,62.00
2022-08-29T03:10:23.156Z,61.54
2022-08-29T03:12:50.339Z,62.18
2022-08-29T03:15:17.818Z,62.82
2022-08-29T03:17:49.314Z,62.35
2022-08-29T03:20:18.579Z,62.45
2022-08-29T03:22:45.777Z,63.08
2022-08-29T03:25:13.747Z,62.74
2022-08-29T03:27:40.631Z,63.05
2022-08-29T03:30:10.982Z,62.99
2022-08-29T03:32:38.834Z,63.11
2022-08-29T03:35:06.658Z,62.68
2022-08-29T03:37:33.572Z,63.00
2022-08-29T03:40:00.434Z,63.03
2022-08-29T03:42:27.198Z,63.19
2022-08-29T03:44:53.727Z,63.53
2022-08-29T03:47:20.403Z,63.43
2022-08-29T03:49:46.942Z,63.18
2022-08-29T03:52:13.721Z,63.36
2022-08-29T03:54:40.697Z,63.29
2022-08-29T03:57:08.284Z,63.02
2022-08-29T03:59:34.939Z,63.14
2022-08-29T04:02:01.930Z,62.92
2022-08-29T04:04:28.610Z,64.55
2022-08-29T04:06:55.264Z,64.61
2022-08-29T04:09:21.833Z,64.62
2022-08-29T04:11:48.504Z,64.70
2022-08-29T04:14:15.225Z,64.78
2022-08-29T04:16:41.894Z,64.52
2022-08-29T04:19:08.954Z,65.77
2022-08-29T04:21:35.610Z,65.34
2022-08-29T04:24:02.350Z,64.72
2022-08-29T04:26:37.020Z,64.77
2022-08-29T04:29:06.704Z,64.81
2022-08-29T04:31:33.455Z,64.56
2022-08-29T04:34:00.135Z,64.55
2022-08-29T04:36:26.976Z,64.58
2022-08-29T04:38:53.667Z,65.09
2022-08-29T04:41:20.305Z,65.02
2022-08-29T04:43:47.742Z,64.99
2022-08-29T04:46:16.323Z,64.58
2022-08-29T04:48:51.251Z,63.97
2022-08-29T04:51:17.830Z,65.09
2022-08-29T04:53:44.430Z,65.58
2022-08-29T04:56:12.966Z,64.86
2022-08-29T04:58:42.511Z,66.05
2022-08-29T05:01:20.686Z,66.98
2022-08-29T05:03:48.185Z,67.35
2022-08-29T05:06:16.809Z,67.11
2022-08-29T05:08:45.650Z,66.71
2022-08-29T05:11:15.382Z,67.64
2022-08-29T05:13:49.598Z,66.25
2022-08-29T05:16:18.031Z,68.24
2022-08-29T05:18:45.423Z,67.28
2022-08-29T05:21:13.281Z,66.35
2022-08-29T05:23:40.320Z,66.87
2022-08-29T05:26:07.021Z,65.49
2022-08-29T05:28:35.346Z,66.36
2022-08-29T05:31:02.030Z,66.58
2022-08-29T05:33:29.007Z,65.50
2022-08-29T05:35:55.652Z,65.55
2022-08-29T05:38:22.304Z,65.54
2022-08-29T05:40:48.840Z,66.68
2022-08-29T05:43:15.685Z,64.76
2022-08-29T05:45:42.358Z,64.50
2022-08-29T05:48:09.710Z,65.74
2022-08-29T05:50:41.326Z,65.94
2022-08-29T05:53:13.344Z,64.91
2022-08-29T05:55:44.147Z,66.34
2022-08-29T05:58:12.478Z,68.47
2022-08-29T06:00:43.415Z,69.56
2022-08-29T06:03:11.954Z,70.96
2022-08-29T06:05:39.855Z,70.02
2022-08-29T06:08:07.627Z,69.39
2022-08-29T06:10:39.008Z,69.12
2022-08-29T06:13:05.673Z,66.92
2022-08-29T06:15:32.247Z,66.48
2022-08-29T06:17:58.904Z,67.85
2022-08-29T06:20:25.454Z,65.43
2022-08-29T06:22:52.084Z,65.67
2022-08-29T06:28:05.436Z,65.41
2022-08-29T06:30:33.732Z,64.70
2022-08-29T06:33:01.797Z,63.53
2022-08-29T06:35:28.694Z,61.28
2022-08-29T06:37:55.417Z,59.84
2022-08-29T06:40:22.543Z,57.33
2022-08-29T06:42:49.223Z,56.80
2022-08-29T06:45:15.903Z,56.21
2022-08-29T06:47:42.524Z,57.19
2022-08-29T06:50:09.409Z,56.48
2022-08-29T06:52:36.094Z,56.52
2022-08-29T06:55:03.373Z,57.73
2022-08-29T06:57:30.028Z,56.43
2022-08-29T06:59:56.850Z,58.97
2022-08-29T07:02:23.444Z,59.20
2022-08-29T07:04:50.020Z,59.92
2022-08-29T07:07:18.275Z,60.37
2022-08-29T07:09:44.835Z,59.85
2022-08-29T07:12:11.390Z,58.57
2022-08-29T07:14:37.945Z,58.11
2022-08-29T07:17:04.615Z,56.82
2022-08-29T07:19:31.162Z,55.30
2022-08-29T07:21:59.339Z,56.95
2022-08-29T07:24:26.789Z,57.45
2022-08-29T07:26:53.458Z,56.82
2022-08-29T07:29:21.387Z,57.69
2022-08-29T07:31:48.700Z,57.30
2022-08-29T07:34:16.162Z,57.53
2022-08-29T07:36:43.291Z,57.53
2022-08-29T07:39:14.195Z,56.37
2022-08-29T07:41:42.046Z,57.10
2022-08-29T07:44:09.598Z,55.69
2022-08-29T07:46:36.660Z,55.06
2022-08-29T07:49:04.175Z,54.97
2022-08-29T07:51:30.922Z,55.55
2022-08-29T07:53:57.937Z,55.37
2022-08-29T07:56:28.133Z,55.41
2022-08-29T07:58:56.381Z,54.09
2022-08-29T08:01:23.503Z,54.56
2022-08-29T08:03:51.729Z,53.99
2022-08-29T08:06:20.608Z,53.02
2022-08-29T08:08:48.210Z,51.56
2022-08-29T08:11:15.405Z,51.22
2022-08-29T08:13:42.196Z,51.21
2022-08-29T08:16:15.066Z,51.42
2022-08-29T08:18:43.677Z,50.93
2022-08-29T08:21:11.417Z,51.45
2022-08-29T08:23:38.837Z,51.52
2022-08-29T08:26:06.793Z,51.05
2022-08-29T08:28:33.553Z,51.04
2022-08-29T08:31:05.732Z,48.99
2022-08-29T08:33:35.555Z,49.80
2022-08-29T08:36:04.461Z,49.98
2022-08-29T08:38:31.495Z,48.25
2022-08-29T08:41:08.852Z,49.90
2022-08-29T08:44:01.452Z,48.34
2022-08-29T08:46:44.341Z,48.91
2022-08-29T08:49:21.641Z,49.86
2022-08-29T08:52:02.061Z,48.75
2022-08-29T08:54:32.703Z,46.05
2022-08-29T08:57:06.771Z,46.53
2022-08-29T08:59:44.877Z,46.81
2022-08-29T09:02:32.942Z,47.03
2022-08-29T09:05:24.144Z,45.34
2022-08-29T09:08:00.718Z,47.45
2022-08-29T09:11:06.066Z,45.53
2022-08-29T09:13:51.335Z,43.19
2022-08-29T09:16:25.418Z,42.64
2022-08-29T09:18:54.119Z,43.04
2022-08-29T09:21:39.905Z,44.30
2022-08-29T09:24:14.505Z,44.08
2022-08-29T09:26:41.266Z,44.38
2022-08-29T09:29:07.824Z,42.18
2022-08-29T09:31:35.351Z,42.21
2022-08-29T09:34:11.840Z,44.24
2022-08-29T09:36:41.257Z,43.71
2022-08-29T09:39:21.035Z,41.14
2022-08-29T09:41:52.453Z,42.39
2022-08-29T09:44:31.643Z,42.66
2022-08-29T09:47:07.674Z,42.83
2022-08-29T09:49:35.400Z,42.43
2022-08-29T09:52:15.481Z,41.41
2022-08-29T09:54:43.788Z,41.47
2022-08-29T09:57:20.143Z,38.19
2022-08-29T10:00:09.357Z,38.46
2022-08-29T10:02:48.852Z,38.02
2022-08-29T10:05:37.287Z,39.11
2022-08-29T10:08:06.497Z,39.46
2022-08-29T10:10:35.527Z,38.80
2022-08-29T10:13:10.186Z,38.62
2022-08-29T10:15:50.820Z,39.05
2022-08-29T10:18:36.544Z,39.05
2022-08-29T10:21:18.895Z,36.47
2022-08-29T10:24:06.959Z,35.65
2022-08-29T10:26:46.247Z,37.01
2022-08-29T10:29:16.055Z,36.14
2022-08-29T10:31:51.973Z,36.87
2022-08-29T10:34:34.947Z,36.22
2022-08-29T10:37:12.822Z,37.32
2022-08-29T10:40:05.723Z,37.00
2022-08-29T10:42:36.290Z,37.37
2022-08-29T10:45:02.881Z,37.24
2022-08-29T10:47:39.732Z,35.92
2022-08-29T10:50:44.205Z,35.02
2022-08-29T10:53:24.336Z,35.78
2022-08-29T10:56:04.402Z,36.96
2022-08-29T10:58:48.444Z,35.87
2022-08-29T11:01:30.721Z,36.06
2022-08-29T11:04:15.038Z,36.23
2022-08-29T11:06:48.648Z,36.89
2022-08-29T11:09:27.900Z,35.57
2022-08-29T11:12:03.768Z,35.52
2022-08-29T11:14:46.531Z,36.43
2022-08-29T11:17:16.658Z,35.37
2022-08-29T11:20:01.176Z,35.93
2022-08-29T11:22:41.615Z,33.45
2022-08-29T11:25:15.480Z,34.95
2022-08-29T11:27:47.970Z,35.36
2022-08-29T11:30:22.951Z,34.49
2022-08-29T11:33:36.383Z,34.01
2022-08-29T11:36:24.240Z,35.18
2022-08-29T11:39:29.338Z,34.66
2022-08-29T11:42:02.249Z,34.36
2022-08-29T11:44:44.432Z,33.31
2022-08-29T11:47:40.887Z,34.95
2022-08-29T11:50:17.178Z,32.88
2022-08-29T11:53:25.937Z,33.57
2022-08-29T11:56:14.082Z,33.34
2022-08-29T11:58:42.737Z,32.33
2022-08-29T12:01:35.414Z,34.97
2022-08-29T12:04:04.471Z,34.62
2022-08-29T12:06:37.001Z,32.49
2022-08-29T12:09:18.816Z,33.89
2022-08-29T12:11:59.112Z,33.80
2022-08-29T12:14:37.409Z,33.10
2022-08-29T12:17:19.191Z,32.05
2022-08-29T12:20:10.396Z,32.60
2022-08-29T12:23:06.864Z,33.06
2022-08-29T12:26:09.613Z,33.34
2022-08-29T12:28:42.754Z,35.06
2022-08-29T12:31:11.853Z,31.79
2022-08-29T12:34:00.558Z,34.68
2022-08-29T12:36:52.182Z,32.78
2022-08-29T12:40:01.441Z,32.21
2022-08-29T12:42:31.144Z,33.51
2022-08-29T12:45:26.440Z,32.77
2022-08-29T12:48:29.613Z,32.34
2022-08-29T12:51:02.374Z,35.19
2022-08-29T12:53:34.845Z,32.11
2022-08-29T12:56:19.686Z,31.83
2022-08-29T12:58:56.784Z,31.72
2022-08-29T13:01:36.811Z,32.04
2022-08-29T13:04:14.359Z,32.73
2022-08-29T13:07:07.908Z,31.25
2022-08-29T13:09:43.221Z,31.73
2022-08-29T13:12:15.045Z,31.59
2022-08-29T13:14:54.218Z,30.28
2022-08-29T13:17:34.528Z,31.35
2022-08-29T13:20:39.438Z,32.71
2022-08-29T13:23:14.079Z,31.02
2022-08-29T13:25:58.435Z,30.59
2022-08-29T13:28:34.820Z,31.81
2022-08-29T13:31:21.246Z,31.29
2022-08-29T13:33:47.941Z,30.27
2022-08-29T13:36:41.820Z,27.93
2022-08-29T13:39:17.605Z,28.82
2022-08-29T13:41:48.613Z,28.83
2022-08-29T13:44:23.190Z,31.15
2022-08-29T13:46:55.266Z,30.90
2022-08-29T13:49:29.224Z,28.07
2022-08-29T13:51:56.517Z,28.88
2022-08-29T13:54:23.324Z,30.91
2022-08-29T13:56:56.591Z,28.89
2022-08-29T13:59:26.235Z,28.68
2022-08-29T14:02:10.820Z,30.19
2022-08-29T14:04:40.828Z,29.52
2022-08-29T14:07:29.678Z,26.75
2022-08-29T14:09:56.631Z,27.31
2022-08-29T14:12:30.456Z,30.17
2022-08-29T14:15:11.534Z,27.40
2022-08-29T14:17:43.095Z,29.56
2022-08-29T14:20:30.807Z,30.17
2022-08-29T14:22:57.555Z,31.03
2022-08-29T14:25:24.305Z,29.67
2022-08-29T14:27:51.366Z,30.48
2022-08-29T14:30:21.054Z,32.32
2022-08-29T14:32:47.771Z,30.42
2022-08-29T14:35:26.778Z,31.07
2022-08-29T14:38:00.429Z,28.28
2022-08-29T14:40:28.774Z,30.45
2022-08-29T14:42:56.696Z,28.09
2022-08-29T14:45:23.255Z,29.44
2022-08-29T14:47:50.323Z,32.42
2022-08-29T14:50:16.936Z,32.04
2022-08-29T14:52:43.733Z,28.29
2022-08-29T14:55:12.000Z,29.47
2022-08-29T14:57:39.197Z,29.93
2022-08-29T15:00:07.822Z,29.11
2022-08-29T15:02:34.683Z,29.58
2022-08-29T15:05:01.470Z,29.34
2022-08-29T15:07:28.127Z,31.29
2022-08-29T15:09:54.851Z,29.02
2022-08-29T15:12:21.608Z,28.12
2022-08-29T15:14:48.262Z,31.56
2022-08-29T15:17:15.372Z,29.79
2022-08-29T15:20:31.669Z,28.63
2022-08-29T15:22:29.212Z,28.92
2022-08-29T15:24:56.188Z,29.46
2022-08-29T15:27:27.308Z,31.11
2022-08-29T15:29:55.654Z,30.33
2022-08-29T15:32:22.425Z,31.32
2022-08-29T15:34:49.176Z,30.73
2022-08-29T15:37:16.423Z,29.59
2022-08-29T15:39:43.162Z,31.46
2022-08-29T15:42:11.647Z,31.71
2022-08-29T15:44:40.121Z,30.79
2022-08-29T15:47:10.537Z,30.51
2022-08-29T15:49:37.794Z,29.84
2022-08-29T15:52:04.798Z,29.36
2022-08-29T15:54:31.535Z,29.46
2022-08-29T15:56:58.160Z,31.52
2022-08-29T15:59:47.191Z,31.66
2022-08-29T16:02:12.034Z,29.82
2022-08-29T16:04:40.234Z,30.74
2022-08-29T16:07:06.955Z,31.24
2022-08-29T16:12:20.328Z,30.65
2022-08-29T16:14:59.154Z,31.75
2022-08-29T16:17:29.560Z,31.41
2022-08-29T16:19:58.457Z,31.07
2022-08-29T16:22:26.548Z,31.26
2022-08-29T16:24:53.670Z,31.25
2022-08-29T16:27:22.457Z,33.25
2022-08-29T16:29:49.127Z,32.48
2022-08-29T16:32:16.602Z,32.32
2022-08-29T16:34:43.534Z,32.62
2022-08-29T16:37:10.249Z,32.55
2022-08-29T16:39:36.910Z,32.92
2022-08-29T16:42:03.680Z,33.41
2022-08-29T16:44:30.267Z,33.44
2022-08-29T16:46:57.304Z,33.39
2022-08-29T16:49:23.898Z,33.77
2022-08-29T16:51:51.354Z,33.49
2022-08-29T16:54:18.745Z,33.14
2022-08-29T16:56:46.088Z,33.55
2022-08-29T16:59:12.799Z,34.66
2022-08-29T17:01:46.123Z,34.17
2022-08-29T17:04:16.494Z,34.21
2022-08-29T17:06:44.198Z,33.14
2022-08-29T17:09:11.267Z,34.04
2022-08-29T17:11:39.865Z,34.20
2022-08-29T17:14:07.780Z,34.51
2022-08-29T17:16:35.902Z,34.54
2022-08-29T17:19:03.408Z,34.73
2022-08-29T17:21:30.070Z,34.94
2022-08-29T17:23:56.805Z,35.48
2022-08-29T17:26:23.627Z,35.24
2022-08-29T17:28:50.787Z,35.63
2022-08-29T17:31:17.724Z,35.59
2022-08-29T17:33:44.607Z,35.90
2022-08-29T17:36:12.014Z,35.64
2022-08-29T17:38:44.598Z,35.85
2022-08-29T17:41:15.238Z,36.02
2022-08-29T17:43:46.556Z,36.02
2022-08-29T17:46:13.549Z,35.99
2022-08-29T17:48:43.671Z,35.87
2022-08-29T17:51:11.419Z,35.84
2022-08-29T17:53:40.478Z,35.99
2022-08-29T17:56:37.934Z,36.47
2022-08-29T17:59:15.994Z,37.08
2022-08-29T18:01:44.301Z,37.33
2022-08-29T18:04:11.399Z,37.88
2022-08-29T18:06:38.441Z,38.78
2022-08-29T18:09:07.074Z,39.05
2022-08-29T18:11:37.371Z,39.93
2022-08-29T18:14:03.972Z,39.78
2022-08-29T18:16:30.813Z,40.40
2022-08-29T18:18:57.431Z,40.32
2022-08-29T18:21:24.131Z,40.51
2022-08-29T18:23:50.743Z,40.93
2022-08-29T18:26:17.491Z,41.41
2022-08-29T18:28:44.133Z,41.77
2022-08-29T18:31:11.797Z,41.48
2022-08-29T18:34:00.077Z,41.67
2022-08-29T18:36:28.835Z,41.55
2022-08-29T18:38:55.475Z,41.58
2022-08-29T18:41:22.192Z,41.37
2022-08-29T18:43:49.005Z,41.21
2022-08-29T18:46:15.813Z,39.85
2022-08-29T18:48:42.435Z,40.08
2022-08-29T18:51:09.178Z,40.17
2022-08-29T18:53:35.921Z,40.72
2022-08-29T18:56:03.246Z,40.77
2022-08-29T18:58:31.934Z,40.51
2022-08-29T19:01:08.602Z,41.17
2022-08-29T19:03:35.454Z,41.42
2022-08-29T19:06:02.030Z,41.27
2022-08-29T19:08:28.682Z,40.94
2022-08-29T19:10:55.462Z,41.18
2022-08-29T19:13:25.187Z,41.41
2022-08-29T19:15:52.829Z,41.58
2022-08-29T19:18:19.664Z,43.02
2022-08-29T19:20:46.275Z,43.27
2022-08-29T19:23:12.949Z,45.41
2022-08-29T19:25:40.142Z,46.89
2022-08-29T19:28:07.910Z,47.48
2022-08-29T19:30:37.989Z,47.71
2022-08-29T19:33:12.023Z,48.50
2022-08-29T19:35:38.896Z,48.64
2022-08-29T19:38:07.136Z,48.58
2022-08-29T19:43:24.364Z,50.01
2022-08-29T19:45:51.959Z,49.54
2022-08-29T19:48:19.649Z,49.22
2022-08-29T19:50:52.096Z,50.00
2022-08-29T19:53:27.192Z,50.57
2022-08-29T19:55:56.423Z,51.79
2022-08-29T19:58:31.875Z,51.87
2022-08-29T20:01:04.261Z,52.50
2022-08-29T20:03:42.018Z,51.75
2022-08-29T20:06:11.376Z,52.08
2022-08-29T20:08:42.623Z,53.06
2022-08-29T20:11:19.883Z,52.66
2022-08-29T20:13:50.631Z,52.39
2022-08-29T20:16:20.597Z,51.97
2022-08-29T20:18:48.879Z,51.35
2022-08-29T20:21:23.563Z,51.14
2022-08-29T20:23:54.699Z,50.81
2022-08-29T20:26:24.768Z,50.81
2022-08-29T20:28:52.574Z,50.58
2022-08-29T20:31:20.585Z,50.65
2022-08-29T20:33:48.365Z,50.43
2022-08-29T20:36:17.262Z,51.11
2022-08-29T20:38:44.062Z,51.04
2022-08-29T20:41:10.789Z,51.37
2022-08-29T20:43:39.200Z,51.97
2022-08-29T20:46:10.774Z,53.04
2022-08-29T20:48:38.802Z,53.85
2022-08-29T20:51:08.522Z,54.65
2022-08-29T20:53:36.312Z,55.06
2022-08-29T20:56:03.586Z,55.74
2022-08-29T20:58:30.868Z,55.56
2022-08-29T21:00:58.299Z,54.89
2022-08-29T21:03:25.592Z,54.85
2022-08-29T21:05:52.150Z,54.70
2022-08-29T21:08:22.263Z,54.33
2022-08-29T21:10:50.853Z,53.48
2022-08-29T21:13:20.454Z,53.66
2022-08-29T21:15:47.125Z,53.98
2022-08-29T21:18:16.371Z,54.53
2022-08-29T21:20:54.227Z,54.83
2022-08-29T21:23:23.406Z,54.95
2022-08-29T21:25:59.265Z,54.74
2022-08-29T21:28:27.688Z,54.75
2022-08-29T21:30:55.384Z,54.96
2022-08-29T21:33:22.373Z,54.57
2022-08-29T21:35:50.142Z,54.58
2022-08-29T21:38:17.927Z,54.84
2022-08-29T21:40:50.507Z,55.36
2022-08-29T21:43:19.713Z,55.39
2022-08-29T21:45:47.653Z,55.71
2022-08-29T21:48:14.380Z,56.59
2022-08-29T21:50:41.105Z,56.95
2022-08-29T21:53:07.746Z,58.31
2022-08-29T21:55:34.384Z,59.41
2022-08-29T21:58:01.168Z,60.96
2022-08-29T22:00:31.158Z,60.21
2022-08-29T22:03:07.254Z,58.93
2022-08-29T22:05:34.874Z,60.12
2022-08-29T22:08:02.693Z,59.66
2022-08-29T22:10:33.513Z,59.13
2022-08-29T22:13:03.011Z,58.88
2022-08-29T22:15:30.480Z,58.85
2022-08-29T22:17:59.773Z,59.37
2022-08-29T22:20:27.234Z,59.90
2022-08-29T22:22:55.201Z,59.74
2022-08-29T22:25:22.774Z,60.53
2022-08-29T22:27:49.797Z,60.37
2022-08-29T22:30:17.051Z,60.86
2022-08-29T22:32:44.029Z,61.12
2022-08-29T22:35:20.023Z,60.06
2022-08-29T22:37:46.698Z,60.26
2022-08-29T22:40:17.471Z,60.22
2022-08-29T22:42:45.916Z,60.52
2022-08-29T22:45:14.541Z,61.36
2022-08-29T22:47:43.151Z,61.16
2022-08-29T22:50:17.046Z,62.98
2022-08-29T22:52:44.751Z,62.80
2022-08-29T22:55:13.846Z,62.89
2022-08-29T22:57:41.797Z,61.85
2022-08-29T23:00:08.994Z,61.95
2022-08-29T23:02:35.743Z,62.22
2022-08-29T23:05:06.346Z,61.47
2022-08-29T23:07:35.591Z,61.13
2022-08-29T23:10:02.186Z,61.48
2022-08-29T23:12:29.089Z,61.46
2022-08-29T23:14:55.717Z,62.91
2022-08-29T23:17:22.331Z,62.70
2022-08-29T23:19:49.409Z,63.62
2022-08-29T23:22:17.823Z,64.65
2022-08-29T23:24:57.806Z,65.09
2022-08-29T23:27:30.403Z,64.10
2022-08-29T23:29:59.642Z,63.43
2022-08-29T23:32:26.922Z,63.21
2022-08-29T23:34:54.751Z,62.73
2022-08-29T23:37:21.336Z,62.56
2022-08-29T23:39:48.018Z,62.83
2022-08-29T23:42:14.626Z,62.18
2022-08-29T23:44:41.240Z,61.65
2022-08-29T23:47:08.529Z,62.62
2022-08-29T23:49:35.669Z,63.45
2022-08-29T23:52:02.955Z,62.96
2022-08-29T23:54:29.649Z,63.03
2022-08-29T23:56:56.233Z,63.29
2022-08-29T23:59:22.879Z,63.34
